No particular awareness of the weather is required.    There are no Weather-warnings


Meteo18 Weather Cam more information Meteo18 Weather Cam


Thunder radar more information blitzortung!


Rain radar more information rain snow radar


Visit our other weather sites:

Template documentation
and downloads

And another site



Weather Underground History page Text

Daily Summary for September 14, 2017 Units:  English    Metric   Both
« Previous Day
Next Day »
Daily Weekly Monthly Yearly Custom
  High: Low: Average:
Temperature: TemperatureC °F 10.0 °F 13.9 °F
Dew Point: DewpointC °F 7.0 °F 9.4 °F
Humidity: Humidity % 54 % 75 %
Wind Speed: WindSpeedKMH mph 0.0 mph 13.1 mph
Wind Gust: WindSpeedGustKMH mph - -
Wind:- - WSW
Pressure: PressurehPa in 1008.4 in -
Precipitation: 11.9 in    
Historical Graphs
 
 
Tabular Data for September 14, 2017
Time Temperature Dew Point Pressure Wind Wind Speed Wind Gust Humidity Rainfall Rate (Hourly)
TemperatureC °F DewpointC °F PressurehPa in Calm     Humidity % HourlyPrecipMM in
00:02 17.8 °F 15.1 °F 1011.4 in SW 37.0 mph 51.5 mph 84 % 0.0 in
00:07 17.8 °F 15.1 °F 1011.4 in SW 27.4 mph 51.5 mph 84 % 0.0 in
00:12 17.7 °F 15.0 °F 1011.4 in SW 20.9 mph 46.7 mph 84 % 0.0 in
00:17 17.7 °F 15.0 °F 1011.4 in SSW 32.2 mph 46.7 mph 84 % 0.0 in
00:22 17.7 °F 15.0 °F 1011.4 in West 24.1 mph 46.7 mph 84 % 0.0 in
00:32 17.7 °F 14.8 °F 1011.1 in SSW 14.5 mph 45.1 mph 83 % 0.0 in
00:42 17.5 °F 14.6 °F 1011.1 in WSW 25.7 mph 53.1 mph 83 % 0.0 in
00:52 17.5 °F 14.4 °F 1010.7 in SW 12.9 mph 38.6 mph 82 % 0.0 in
00:57 17.5 °F 14.4 °F 1010.7 in SW 25.7 mph 41.8 mph 82 % 0.0 in
01:02 17.5 °F 14.6 °F 1010.7 in SW 37.0 mph 41.8 mph 83 % 0.0 in
01:07 17.5 °F 14.6 °F 1010.4 in West 32.2 mph 40.2 mph 83 % 0.0 in
01:12 17.4 °F 14.5 °F 1010.4 in South 11.3 mph 40.2 mph 83 % 0.0 in
01:17 17.4 °F 14.5 °F 1010.4 in SW 27.4 mph 37.0 mph 83 % 0.0 in
01:27 17.4 °F 14.5 °F 1010.0 in SW 32.2 mph 46.7 mph 83 % 0.0 in
01:32 17.4 °F 14.5 °F 1010.0 in SSE 20.9 mph 46.7 mph 83 % 0.0 in
01:37 17.4 °F 14.5 °F 1009.7 in SW 29.0 mph 46.7 mph 83 % 0.0 in
01:42 17.4 °F 14.5 °F 1009.7 in SW 17.7 mph 46.7 mph 83 % 0.0 in
01:47 17.5 °F 14.4 °F 1009.7 in SW 24.1 mph 41.8 mph 82 % 0.0 in
01:52 17.6 °F 14.5 °F 1009.7 in SW 33.8 mph 40.2 mph 82 % 0.0 in
01:57 17.6 °F 14.5 °F 1009.7 in SW 37.0 mph 40.2 mph 82 % 0.0 in
02:07 17.6 °F 14.5 °F 1009.7 in WSW 25.7 mph 40.2 mph 82 % 0.0 in
02:12 17.7 °F 14.6 °F 1009.4 in WSW 32.2 mph 45.1 mph 82 % 0.0 in
02:17 17.7 °F 14.6 °F 1009.4 in WSW 38.6 mph 45.1 mph 82 % 0.0 in
02:22 17.8 °F 14.5 °F 1009.4 in WSW 22.5 mph 45.1 mph 81 % 0.0 in
02:32 17.9 °F 14.8 °F 1009.4 in West 22.5 mph 46.7 mph 82 % 0.0 in
02:37 17.9 °F 14.8 °F 1009.0 in SW 24.1 mph 45.1 mph 82 % 0.0 in
02:42 17.9 °F 14.8 °F 1009.0 in SW 20.9 mph 46.7 mph 82 % 0.0 in
02:47 17.9 °F 14.8 °F 1009.0 in SSW 20.9 mph 46.7 mph 82 % 0.0 in
02:52 18.0 °F 14.9 °F 1008.7 in SW 29.0 mph 45.1 mph 82 % 0.0 in
03:02 18.0 °F 14.9 °F 1008.7 in SW 19.3 mph 45.1 mph 82 % 0.0 in
03:07 18.0 °F 14.9 °F 1008.7 in SSW 27.4 mph 45.1 mph 82 % 0.0 in
03:12 17.9 °F 14.8 °F 1008.7 in SW 37.0 mph 45.1 mph 82 % 0.0 in
03:17 18.0 °F 14.9 °F 1008.7 in WSW 27.4 mph 43.4 mph 82 % 0.0 in
03:22 18.0 °F 14.9 °F 1008.7 in SW 25.7 mph 43.4 mph 82 % 0.0 in
03:27 18.0 °F 14.7 °F 1008.4 in SW 19.3 mph 51.5 mph 81 % 0.0 in
03:32 17.9 °F 14.6 °F 1008.7 in WNW 20.9 mph 51.5 mph 81 % 0.0 in
03:37 17.8 °F 14.9 °F 1009.7 in NW 30.6 mph 43.4 mph 83 % 0.0 in
03:42 15.2 °F 11.6 °F 1010.0 in WNW 27.4 mph 41.8 mph 79 % 0.5 in
03:47 13.3 °F 11.2 °F 1010.0 in NNW 14.5 mph 41.8 mph 87 % 2.0 in
03:52 12.6 °F 11.0 °F 1010.0 in NNW 14.5 mph 40.2 mph 90 % 2.3 in
03:57 12.3 °F 10.9 °F 1009.7 in ENE 12.9 mph 33.8 mph 91 % 2.5 in
04:02 12.1 °F 10.8 °F 1010.0 in WNW 12.9 mph 33.8 mph 92 % 2.5 in
04:07 11.9 °F 10.6 °F 1010.0 in WNW 19.3 mph 25.7 mph 92 % 3.0 in
04:12 11.9 °F 10.6 °F 1010.0 in NW 6.4 mph 24.1 mph 92 % 3.3 in
04:17 11.8 °F 10.7 °F 1010.0 in WNW 6.4 mph 22.5 mph 93 % 3.3 in
04:22 11.7 °F 10.6 °F 1010.4 in WNW 8.0 mph 24.1 mph 93 % 3.3 in
04:27 11.7 °F 10.6 °F 1010.4 in WNW 11.3 mph 29.0 mph 93 % 3.6 in
04:32 11.6 °F 10.5 °F 1010.4 in WSW 8.0 mph 29.0 mph 93 % 3.6 in
04:37 11.6 °F 10.5 °F 1010.4 in West 3.2 mph 29.0 mph 93 % 3.6 in
04:42 11.4 °F 10.3 °F 1010.4 in West 3.2 mph 16.1 mph 93 % 2.8 in
04:47 11.3 °F 10.2 °F 1010.4 in NNW 4.8 mph 16.1 mph 93 % 2.0 in
04:52 11.3 °F 10.2 °F 1010.7 in NW 6.4 mph 16.1 mph 93 % 2.0 in
05:02 11.2 °F 10.1 °F 1011.1 in West 9.7 mph 19.3 mph 93 % 2.3 in
05:07 11.2 °F 10.1 °F 1011.1 in SSW 4.8 mph 19.3 mph 93 % 2.3 in
05:12 11.2 °F 10.1 °F 1011.1 in WSW 1.6 mph 19.3 mph 93 % 2.3 in
05:22 11.1 °F 10.0 °F 1011.1 in WSW 1.6 mph 20.9 mph 93 % 2.3 in
05:32 11.1 °F 10.0 °F 1011.4 in WSW 6.4 mph 12.9 mph 93 % 2.3 in
05:37 11.2 °F 9.9 °F 1011.1 in West 11.3 mph 12.9 mph 92 % 2.3 in
05:42 11.2 °F 9.9 °F 1011.7 in SSW 8.0 mph 19.3 mph 92 % 2.0 in
05:47 11.2 °F 9.9 °F 1011.4 in NW 6.4 mph 19.3 mph 92 % 1.8 in
05:52 11.2 °F 9.9 °F 1011.4 in West 4.8 mph 19.3 mph 92 % 1.5 in
05:57 11.1 °F 9.8 °F 1011.4 in SW 8.0 mph 11.3 mph 92 % 1.5 in
06:02 11.1 °F 9.8 °F 1011.7 in SW 4.8 mph 11.3 mph 92 % 1.3 in
06:07 11.0 °F 9.8 °F 1011.1 in WSW 3.2 mph 9.7 mph 92 % 0.8 in
06:12 10.9 °F 9.8 °F 1011.1 in SSW 1.6 mph 9.7 mph 93 % 0.8 in
06:17 10.9 °F 9.8 °F 1011.1 in Calm   9.7 mph 93 % 0.5 in
06:22 11.0 °F 10.1 °F 1011.7 in SW 6.4 mph 9.7 mph 94 % 0.5 in
06:32 11.1 °F 10.2 °F 1011.1 in SSW 1.6 mph 11.3 mph 94 % 0.8 in
06:37 11.1 °F 10.2 °F 1011.7 in WSW 6.4 mph 12.9 mph 94 % 1.5 in
06:42 11.1 °F 10.3 °F 1011.4 in WNW 1.6 mph 12.9 mph 95 % 1.5 in
06:52 11.0 °F 10.2 °F 1011.7 in SSE 1.6 mph 12.9 mph 95 % 2.0 in
06:57 11.0 °F 10.2 °F 1011.4 in SW 3.2 mph 14.5 mph 95 % 2.8 in
07:02 11.0 °F 10.2 °F 1011.7 in SSW 9.7 mph 14.5 mph 95 % 2.8 in
07:12 10.9 °F 10.1 °F 1011.7 in South 6.4 mph 16.1 mph 95 % 3.0 in
07:17 10.9 °F 10.1 °F 1011.7 in SSW 9.7 mph 16.1 mph 95 % 3.3 in
07:22 10.9 °F 10.1 °F 1011.7 in South 3.2 mph 17.7 mph 95 % 3.6 in
07:27 11.0 °F 10.2 °F 1011.7 in SW 9.7 mph 17.7 mph 95 % 3.6 in
07:32 11.0 °F 10.2 °F 1011.7 in WSW 14.5 mph 25.7 mph 95 % 3.3 in
07:37 11.0 °F 10.2 °F 1011.7 in SW 12.9 mph 25.7 mph 95 % 3.8 in
07:42 11.0 °F 10.2 °F 1011.7 in West 12.9 mph 25.7 mph 95 % 3.6 in
07:47 11.0 °F 10.2 °F 1012.1 in SW 16.1 mph 22.5 mph 95 % 3.6 in
07:52 11.0 °F 10.2 °F 1011.4 in SW 6.4 mph 27.4 mph 95 % 3.3 in
08:02 11.1 °F 10.3 °F 1011.7 in SW 8.0 mph 27.4 mph 95 % 3.0 in
08:12 11.2 °F 10.4 °F 1012.1 in SW 20.9 mph 22.5 mph 95 % 2.8 in
08:22 11.3 °F 10.4 °F 1012.1 in WSW 12.9 mph 22.5 mph 94 % 1.5 in
08:32 11.3 °F 10.4 °F 1012.1 in SW 12.9 mph 29.0 mph 94 % 1.3 in
08:37 11.4 °F 10.5 °F 1012.1 in WSW 16.1 mph 32.2 mph 94 % 0.8 in
08:42 11.4 °F 10.3 °F 1012.8 in West 16.1 mph 32.2 mph 93 % 0.5 in
08:47 11.4 °F 10.3 °F 1012.4 in West 16.1 mph 27.4 mph 93 % 0.3 in
08:52 11.6 °F 10.3 °F 1012.8 in West 11.3 mph 27.4 mph 92 % 0.3 in
09:02 11.6 °F 10.3 °F 1012.8 in West 9.7 mph 27.4 mph 92 % 0.0 in
09:12 11.7 °F 10.4 °F 1013.1 in WSW 9.7 mph 24.1 mph 92 % 0.0 in
09:17 11.7 °F 10.4 °F 1012.8 in WSW 20.9 mph 25.7 mph 92 % 0.0 in
09:22 11.7 °F 10.4 °F 1013.1 in West 9.7 mph 25.7 mph 92 % 0.0 in
09:32 11.7 °F 10.4 °F 1013.1 in West 12.9 mph 24.1 mph 92 % 0.0 in
09:37 11.7 °F 10.3 °F 1013.4 in West 19.3 mph 25.7 mph 91 % 0.3 in
09:42 11.8 °F 10.2 °F 1013.4 in WSW 16.1 mph 25.7 mph 90 % 0.3 in
09:47 11.8 °F 10.2 °F 1013.4 in WSW 12.9 mph 32.2 mph 90 % 0.3 in
09:52 11.8 °F 10.0 °F 1013.8 in WNW 9.7 mph 32.2 mph 89 % 0.3 in
10:02 12.0 °F 9.4 °F 1013.8 in WNW 19.3 mph 30.6 mph 84 % 0.3 in
10:12 12.3 °F 9.5 °F 1013.8 in West 22.5 mph 38.6 mph 83 % 0.3 in
10:17 12.4 °F 9.8 °F 1014.1 in West 11.3 mph 38.6 mph 84 % 0.3 in
10:22 12.7 °F 10.2 °F 1014.1 in West 19.3 mph 35.4 mph 85 % 0.3 in
10:32 12.8 °F 9.8 °F 1014.4 in WSW 16.1 mph 33.8 mph 82 % 0.3 in
10:42 12.7 °F 9.7 °F 1014.8 in West 17.7 mph 33.8 mph 82 % 0.0 in
10:47 12.7 °F 9.9 °F 1014.8 in West 14.5 mph 35.4 mph 83 % 0.0 in
11:02 13.2 °F 9.3 °F 1015.1 in West 25.7 mph 33.8 mph 77 % 0.0 in
11:12 13.4 °F 9.1 °F 1015.1 in WSW 20.9 mph 35.4 mph 75 % 0.0 in
11:17 13.6 °F 8.9 °F 1015.5 in West 12.9 mph 38.6 mph 73 % 0.0 in
11:22 13.6 °F 8.4 °F 1015.5 in West 22.5 mph 38.6 mph 71 % 0.0 in
11:32 13.4 °F 8.5 °F 1015.5 in WNW 17.7 mph 43.4 mph 72 % 0.0 in
11:42 13.6 °F 8.6 °F 1015.8 in West 16.1 mph 43.4 mph 72 % 0.0 in
11:47 13.8 °F 8.4 °F 1016.1 in WNW 32.2 mph 43.4 mph 70 % 0.0 in
11:52 13.9 °F 8.5 °F 1016.1 in West 19.3 mph 40.2 mph 70 % 0.0 in
11:57 13.7 °F 8.5 °F 1016.1 in WNW 8.0 mph 40.2 mph 71 % 0.0 in
12:02 13.7 °F 8.3 °F 1016.5 in West 11.3 mph 40.2 mph 70 % 0.0 in
12:12 13.7 °F 8.5 °F 1016.5 in West 12.9 mph 37.0 mph 71 % 0.0 in
12:17 13.8 °F 8.4 °F 1016.5 in WSW 19.3 mph 32.2 mph 70 % 0.0 in
12:22 13.8 °F 7.8 °F 1016.5 in WNW 29.0 mph 32.2 mph 67 % 0.0 in
12:32 13.6 °F 8.4 °F 1016.5 in WSW 24.1 mph 41.8 mph 71 % 0.0 in
12:42 14.0 °F 8.2 °F 1016.8 in WNW 17.7 mph 41.8 mph 68 % 0.0 in
12:47 14.1 °F 7.6 °F 1016.8 in WSW 17.7 mph 30.6 mph 65 % 0.0 in
12:52 14.3 °F 7.8 °F 1017.2 in WSW 30.6 mph 30.6 mph 65 % 0.0 in
12:57 13.9 °F 8.1 °F 1017.2 in West 24.1 mph 37.0 mph 68 % 0.0 in
13:02 13.9 °F 8.7 °F 1017.2 in WNW 11.3 mph 37.0 mph 71 % 0.0 in
13:12 14.3 °F 8.0 °F 1017.2 in WSW 20.9 mph 37.0 mph 66 % 0.0 in
13:17 14.1 °F 7.8 °F 1017.5 in WNW 24.1 mph 29.0 mph 66 % 0.0 in
13:22 13.8 °F 7.8 °F 1017.5 in WSW 24.1 mph 30.6 mph 67 % 0.0 in
13:27 14.0 °F 8.0 °F 1017.5 in West 11.3 mph 32.2 mph 67 % 0.0 in
13:32 14.4 °F 7.4 °F 1017.5 in West 14.5 mph 32.2 mph 63 % 0.0 in
13:42 14.4 °F 8.1 °F 1017.5 in West 12.9 mph 32.2 mph 66 % 0.0 in
13:47 14.8 °F 8.1 °F 1017.8 in West 17.7 mph 32.2 mph 64 % 0.0 in
13:52 15.0 °F 8.0 °F 1017.8 in WNW 11.3 mph 30.6 mph 63 % 0.0 in
13:57 14.7 °F 7.5 °F 1017.8 in WSW 19.3 mph 30.6 mph 62 % 0.0 in
14:02 14.4 °F 8.1 °F 1018.2 in West 20.9 mph 30.6 mph 66 % 0.0 in
14:12 14.4 °F 8.3 °F 1018.2 in West 12.9 mph 32.2 mph 67 % 0.0 in
14:17 14.4 °F 7.7 °F 1018.2 in WSW 11.3 mph 32.2 mph 64 % 0.0 in
14:22 14.5 °F 7.8 °F 1018.2 in West 11.3 mph 33.8 mph 64 % 0.0 in
14:27 14.7 °F 8.2 °F 1018.2 in West 14.5 mph 33.8 mph 65 % 0.0 in
14:32 15.0 °F 8.5 °F 1018.2 in WSW 19.3 mph 27.4 mph 65 % 0.0 in
14:37 15.1 °F 8.1 °F 1018.2 in WSW 19.3 mph 27.4 mph 63 % 0.0 in
14:42 14.8 °F 7.8 °F 1018.2 in West 17.7 mph 29.0 mph 63 % 0.0 in
14:47 14.8 °F 7.8 °F 1018.5 in West 16.1 mph 32.2 mph 63 % 0.0 in
14:52 15.0 °F 8.0 °F 1018.5 in West 16.1 mph 37.0 mph 63 % 0.0 in
14:57 15.0 °F 8.0 °F 1018.5 in West 17.7 mph 37.0 mph 63 % 0.0 in
15:02 14.9 °F 7.9 °F 1018.5 in WNW 14.5 mph 29.0 mph 63 % 0.0 in
15:07 15.1 °F 8.1 °F 1018.5 in WNW 27.4 mph 29.0 mph 63 % 0.0 in
15:12 14.9 °F 7.9 °F 1018.5 in West 9.7 mph 33.8 mph 63 % 0.0 in
15:17 15.1 °F 8.3 °F 1018.5 in West 6.4 mph 33.8 mph 64 % 0.0 in
15:22 15.1 °F 8.3 °F 1018.5 in West 17.7 mph 33.8 mph 64 % 0.0 in
15:27 15.1 °F 7.9 °F 1018.5 in WSW 22.5 mph 30.6 mph 62 % 0.0 in
15:32 15.1 °F 8.1 °F 1018.5 in NW 8.0 mph 30.6 mph 63 % 0.0 in
15:37 15.2 °F 8.2 °F 1018.5 in WNW 14.5 mph 30.6 mph 63 % 0.0 in
15:42 15.3 °F 7.8 °F 1018.5 in West 12.9 mph 25.7 mph 61 % 0.0 in
15:47 15.6 °F 8.6 °F 1018.5 in West 27.4 mph 27.4 mph 63 % 0.0 in
15:57 15.5 °F 8.2 °F 1018.5 in WSW 19.3 mph 29.0 mph 62 % 0.0 in
16:02 15.3 °F 7.8 °F 1018.5 in SW 12.9 mph 29.0 mph 61 % 0.0 in
16:07 15.4 °F 7.9 °F 1018.5 in WSW 16.1 mph 24.1 mph 61 % 0.0 in
16:12 15.4 °F 7.9 °F 1018.5 in West 20.9 mph 29.0 mph 61 % 0.0 in
16:17 15.4 °F 7.7 °F 1018.5 in WSW 16.1 mph 29.0 mph 60 % 0.0 in
16:22 15.3 °F 7.8 °F 1018.5 in West 14.5 mph 33.8 mph 61 % 0.0 in
16:32 15.9 °F 7.6 °F 1018.5 in SW 11.3 mph 37.0 mph 58 % 0.0 in
16:37 15.7 °F 7.7 °F 1018.5 in West 11.3 mph 37.0 mph 59 % 0.0 in
16:42 15.6 °F 7.9 °F 1018.5 in West 9.7 mph 29.0 mph 60 % 0.0 in
16:47 15.6 °F 7.9 °F 1018.5 in West 8.0 mph 27.4 mph 60 % 0.0 in
16:52 15.9 °F 7.6 °F 1018.5 in WNW 14.5 mph 30.6 mph 58 % 0.0 in
16:57 15.7 °F 7.2 °F 1018.5 in West 19.3 mph 30.6 mph 57 % 0.0 in
17:02 15.9 °F 7.9 °F 1018.2 in West 14.5 mph 30.6 mph 59 % 0.0 in
17:07 16.1 °F 7.6 °F 1018.2 in WSW 25.7 mph 29.0 mph 57 % 0.0 in
17:12 16.3 °F 8.0 °F 1018.5 in WSW 14.5 mph 29.0 mph 58 % 0.0 in
17:17 16.3 °F 7.5 °F 1018.2 in WSW 12.9 mph 32.2 mph 56 % 0.0 in
17:22 16.3 °F 8.0 °F 1018.5 in West 20.9 mph 32.2 mph 58 % 0.0 in
17:27 15.9 °F 7.4 °F 1018.5 in West 11.3 mph 32.2 mph 57 % 0.0 in
17:32 15.6 °F 7.6 °F 1018.5 in WSW 8.0 mph 27.4 mph 59 % 0.0 in
17:37 15.6 °F 7.4 °F 1018.5 in WSW 14.5 mph 27.4 mph 58 % 0.0 in
17:42 15.5 °F 7.3 °F 1018.2 in NW 9.7 mph 25.7 mph 58 % 0.0 in
17:47 15.5 °F 7.3 °F 1018.2 in SW 17.7 mph 24.1 mph 58 % 0.0 in
17:52 15.6 °F 7.1 °F 1018.2 in WNW 12.9 mph 22.5 mph 57 % 0.0 in
17:57 15.7 °F 7.2 °F 1018.2 in WSW 17.7 mph 29.0 mph 57 % 0.0 in
18:02 15.7 °F 7.5 °F 1018.2 in West 16.1 mph 29.0 mph 58 % 0.0 in
18:07 15.9 °F 7.4 °F 1018.2 in West 11.3 mph 29.0 mph 57 % 0.0 in
18:12 16.2 °F 7.4 °F 1018.2 in WSW 12.9 mph 25.7 mph 56 % 0.0 in
18:17 16.1 °F 7.3 °F 1018.2 in West 6.4 mph 25.7 mph 56 % 0.0 in
18:22 16.2 °F 7.4 °F 1018.2 in WSW 11.3 mph 24.1 mph 56 % 0.0 in
18:32 16.3 °F 7.0 °F 1018.2 in WSW 9.7 mph 29.0 mph 54 % 0.0 in
18:37 16.1 °F 7.1 °F 1018.2 in WSW 14.5 mph 29.0 mph 55 % 0.0 in
18:42 15.9 °F 7.4 °F 1018.2 in West 14.5 mph 29.0 mph 57 % 0.0 in
18:52 16.0 °F 7.2 °F 1018.2 in SW 19.3 mph 27.4 mph 56 % 0.0 in
18:57 16.0 °F 7.5 °F 1018.2 in West 8.0 mph 27.4 mph 57 % 0.0 in
19:02 15.9 °F 7.4 °F 1018.2 in WNW 22.5 mph 27.4 mph 57 % 0.0 in
19:07 15.9 °F 7.4 °F 1018.2 in West 11.3 mph 24.1 mph 57 % 0.0 in
19:12 15.8 °F 7.3 °F 1018.2 in WNW 6.4 mph 24.1 mph 57 % 0.0 in
19:17 15.8 °F 7.3 °F 1018.2 in SW 4.8 mph 24.1 mph 57 % 0.0 in
19:22 15.8 °F 7.3 °F 1018.2 in West 14.5 mph 24.1 mph 57 % 0.0 in
19:32 15.6 °F 7.1 °F 1018.5 in WSW 16.1 mph 19.3 mph 57 % 0.0 in
19:37 15.3 °F 7.1 °F 1018.5 in WSW 9.7 mph 22.5 mph 58 % 0.0 in
19:42 15.1 °F 7.1 °F 1018.5 in WSW 11.3 mph 22.5 mph 59 % 0.0 in
19:47 14.8 °F 7.1 °F 1018.5 in SW 4.8 mph 22.5 mph 60 % 0.0 in
19:52 14.7 °F 7.3 °F 1018.5 in West 4.8 mph 14.5 mph 61 % 0.0 in
19:57 14.6 °F 7.4 °F 1018.5 in West 4.8 mph 12.9 mph 62 % 0.0 in
20:02 14.3 °F 7.4 °F 1018.5 in WSW 3.2 mph 9.7 mph 63 % 0.0 in
20:07 14.2 °F 7.5 °F 1018.5 in WSW 4.8 mph 9.7 mph 64 % 0.0 in
20:12 13.9 °F 7.2 °F 1018.5 in SW 3.2 mph 9.7 mph 64 % 0.0 in
20:17 13.8 °F 7.3 °F 1018.8 in WSW 1.6 mph 8.0 mph 65 % 0.0 in
20:22 13.8 °F 7.3 °F 1018.8 in SW 3.2 mph 8.0 mph 65 % 0.0 in
20:32 13.6 °F 7.4 °F 1018.8 in WSW 3.2 mph 11.3 mph 66 % 0.0 in
20:37 13.5 °F 7.3 °F 1018.8 in WSW 4.8 mph 11.3 mph 66 % 0.0 in
20:42 13.4 °F 7.2 °F 1018.8 in SW 6.4 mph 11.3 mph 66 % 0.0 in
20:47 13.3 °F 7.3 °F 1018.8 in WSW 6.4 mph 9.7 mph 67 % 0.0 in
20:52 13.3 °F 7.3 °F 1018.8 in WSW 4.8 mph 9.7 mph 67 % 0.0 in
20:57 13.0 °F 7.4 °F 1018.8 in West 1.6 mph 8.0 mph 69 % 0.0 in
21:02 12.6 °F 7.5 °F 1019.2 in West 1.6 mph 8.0 mph 71 % 0.0 in
21:07 12.3 °F 7.4 °F 1019.2 in Calm   6.4 mph 72 % 0.0 in
21:12 12.3 °F 7.4 °F 1019.2 in WSW 3.2 mph 4.8 mph 72 % 0.0 in
21:17 12.2 °F 7.3 °F 1019.2 in West 1.6 mph 4.8 mph 72 % 0.0 in
21:22 12.2 °F 7.3 °F 1019.2 in WSW 1.6 mph 4.8 mph 72 % 0.0 in
21:27 12.1 °F 7.4 °F 1019.2 in West 3.2 mph 4.8 mph 73 % 0.0 in
21:32 11.9 °F 7.2 °F 1019.2 in Calm   4.8 mph 73 % 0.0 in
21:37 11.7 °F 7.2 °F 1019.2 in Calm   4.8 mph 74 % 0.0 in
21:42 11.5 °F 7.2 °F 1019.2 in Calm   4.8 mph 75 % 0.0 in
21:52 11.3 °F 7.2 °F 1019.2 in West 3.2 mph 3.2 mph 76 % 0.0 in
21:57 11.5 °F 7.2 °F 1019.2 in WSW 3.2 mph 4.8 mph 75 % 0.0 in
22:02 11.6 °F 7.1 °F 1019.2 in WSW 1.6 mph 6.4 mph 74 % 0.0 in
22:07 11.8 °F 7.1 °F 1019.2 in SW 4.8 mph 6.4 mph 73 % 0.0 in
22:12 12.2 °F 7.3 °F 1019.2 in WSW 6.4 mph 8.0 mph 72 % 0.0 in
22:17 12.4 °F 7.3 °F 1019.2 in WSW 4.8 mph 9.7 mph 71 % 0.0 in
22:22 12.5 °F 7.4 °F 1019.2 in SW 3.2 mph 9.7 mph 71 % 0.0 in
22:27 12.7 °F 7.4 °F 1019.2 in West 4.8 mph 11.3 mph 70 % 0.0 in
22:32 12.7 °F 7.4 °F 1019.2 in WSW 4.8 mph 11.3 mph 70 % 0.0 in
22:37 12.7 °F 7.4 °F 1019.2 in SW 1.6 mph 11.3 mph 70 % 0.0 in
22:42 12.7 °F 7.4 °F 1019.2 in WSW 4.8 mph 8.0 mph 70 % 0.0 in
22:47 12.7 °F 7.4 °F 1019.2 in West 3.2 mph 6.4 mph 70 % 0.0 in
22:52 12.7 °F 7.4 °F 1019.2 in West 3.2 mph 8.0 mph 70 % 0.0 in
22:57 12.6 °F 7.5 °F 1018.8 in Calm   8.0 mph 71 % 0.0 in
23:02 12.3 °F 7.6 °F 1018.8 in Calm   8.0 mph 73 % 0.0 in
23:07 11.8 °F 7.7 °F 1018.8 in Calm   8.0 mph 76 % 0.0 in
23:12 11.4 °F 7.5 °F 1018.8 in Calm   3.2 mph 77 % 0.0 in
23:17 11.0 °F 7.5 °F 1018.8 in SSE 1.6 mph 1.6 mph 79 % 0.0 in
23:22 10.7 °F 7.4 °F 1018.8 in SW 1.6 mph 4.8 mph 80 % 0.0 in
23:27 10.5 °F 7.4 °F 1018.8 in SSE 1.6 mph 4.8 mph 81 % 0.0 in
23:32 10.4 °F 7.5 °F 1018.8 in Calm   4.8 mph 82 % 0.0 in
23:37 10.2 °F 7.4 °F 1018.8 in Calm   3.2 mph 83 % 0.0 in
23:42 10.1 °F 7.5 °F 1018.8 in Calm   3.2 mph 84 % 0.0 in
23:47 10.0 °F 7.4 °F 1018.8 in Calm   3.2 mph 84 % 0.0 in
23:52 10.1 °F 7.5 °F 1018.8 in Calm   3.2 mph 84 % 0.0 in
23:57 10.1 °F 7.5 °F 1018.8 in Calm   1.6 mph 84 % 0.0 in
Meteo18
Compliments of Weather Underground - 4 mb

Script developed by  Jim McMurry - jmcmurry@mwt.net Adapted for the template by  Wim van der Kuil - Leuven-Template.eu

You find our weather info also at:

European Weather Network

Weather Underground

Equipment we use:

Weather-station
Davis Vue

Weather-program
Meteobridge

Weather-server
Raspberry PI 2 B+

Provider
1 and 1

Davis Vue

Meteobridge

Raspberry PI 2 B+

1 and 1